createdAt,value
2022-10-18T00:01:01.356Z,59.34
2022-10-18T00:03:28.874Z,59.38
2022-10-18T00:05:56.505Z,59.39
2022-10-18T00:08:24.116Z,59.53
2022-10-18T00:10:51.598Z,59.60
2022-10-18T00:13:18.984Z,59.40
2022-10-18T00:16:10.096Z,60.15
2022-10-18T00:18:37.259Z,59.47
2022-10-18T00:21:12.735Z,59.78
2022-10-18T00:23:40.269Z,59.58
2022-10-18T00:26:11.682Z,59.79
2022-10-18T00:28:39.849Z,59.61
2022-10-18T00:31:23.572Z,60.38
2022-10-18T00:33:58.500Z,60.05
2022-10-18T00:36:27.327Z,60.20
2022-10-18T00:38:55.020Z,60.51
2022-10-18T00:41:25.636Z,60.33
2022-10-18T00:44:28.076Z,60.80
2022-10-18T00:47:07.159Z,60.84
2022-10-18T00:49:49.196Z,60.55
2022-10-18T00:52:43.039Z,60.77
2022-10-18T00:55:10.691Z,60.21
2022-10-18T00:57:40.283Z,60.28
2022-10-18T01:00:10.510Z,60.34
2022-10-18T01:02:40.282Z,60.48
2022-10-18T01:05:08.271Z,60.32
2022-10-18T01:07:59.929Z,60.70
2022-10-18T01:11:01.095Z,61.01
2022-10-18T01:13:50.060Z,61.22
2022-10-18T01:16:38.348Z,61.04
2022-10-18T01:19:39.048Z,61.23
2022-10-18T01:22:14.006Z,61.04
2022-10-18T01:24:50.249Z,61.03
2022-10-18T01:27:49.212Z,61.08
2022-10-18T01:30:58.581Z,61.20
2022-10-18T01:33:43.989Z,61.22
2022-10-18T01:36:26.237Z,60.87
2022-10-18T01:38:57.313Z,61.04
2022-10-18T01:41:25.905Z,61.14
2022-10-18T01:44:02.387Z,61.57
2022-10-18T01:46:30.119Z,61.27
2022-10-18T01:48:58.476Z,61.88
2022-10-18T01:51:28.043Z,61.71
2022-10-18T01:53:55.503Z,61.79
2022-10-18T01:56:50.492Z,61.92
2022-10-18T01:59:55.096Z,62.42
2022-10-18T02:02:43.765Z,61.72
2022-10-18T02:05:28.929Z,62.60
2022-10-18T02:08:22.401Z,62.36
2022-10-18T02:10:53.943Z,62.55
2022-10-18T02:13:22.894Z,61.95
2022-10-18T02:16:19.605Z,62.60
2022-10-18T02:18:55.436Z,62.44
2022-10-18T02:21:24.782Z,62.11
2022-10-18T02:23:55.578Z,62.53
2022-10-18T02:26:22.976Z,61.97
2022-10-18T02:28:50.423Z,61.95
2022-10-18T02:31:31.303Z,62.66
2022-10-18T02:33:59.264Z,62.24
2022-10-18T02:36:39.375Z,62.39
2022-10-18T02:39:16.798Z,62.26
2022-10-18T02:41:44.335Z,62.44
2022-10-18T02:44:12.789Z,62.75
2022-10-18T02:46:40.579Z,62.67
2022-10-18T02:49:07.846Z,62.73
2022-10-18T02:51:35.709Z,62.55
2022-10-18T02:54:02.951Z,62.79
2022-10-18T02:56:30.281Z,63.14
2022-10-18T02:58:57.504Z,63.16
2022-10-18T03:01:24.684Z,63.27
2022-10-18T03:03:52.070Z,63.25
2022-10-18T03:06:19.436Z,63.03
2022-10-18T03:08:46.774Z,63.23
2022-10-18T03:11:14.419Z,62.98
2022-10-18T03:13:42.155Z,63.28
2022-10-18T03:16:10.523Z,63.28
2022-10-18T03:18:37.752Z,63.49
2022-10-18T03:21:08.496Z,63.60
2022-10-18T03:23:36.463Z,63.56
2022-10-18T03:26:04.727Z,63.47
2022-10-18T03:28:32.393Z,63.58
2022-10-18T03:31:05.956Z,63.71
2022-10-18T03:33:33.304Z,63.60
2022-10-18T03:36:00.551Z,63.57
2022-10-18T03:38:28.270Z,63.82
2022-10-18T03:40:55.894Z,63.97
2022-10-18T03:43:23.508Z,63.63
2022-10-18T03:45:50.949Z,63.98
2022-10-18T03:48:18.444Z,63.90
2022-10-18T03:50:45.651Z,63.68
2022-10-18T03:53:13.021Z,64.27
2022-10-18T03:55:40.680Z,64.40
2022-10-18T03:58:08.125Z,64.35
2022-10-18T04:00:35.688Z,64.26
2022-10-18T04:03:04.264Z,64.60
2022-10-18T04:05:31.642Z,64.06
2022-10-18T04:08:00.495Z,64.30
2022-10-18T04:10:29.200Z,64.24
2022-10-18T04:12:57.461Z,64.37
2022-10-18T04:15:25.644Z,64.51
2022-10-18T04:17:53.028Z,64.43
2022-10-18T04:20:20.138Z,64.43
2022-10-18T04:22:51.204Z,64.98
2022-10-18T04:25:19.226Z,64.30
2022-10-18T04:27:46.408Z,64.36
2022-10-18T04:30:13.486Z,64.47
2022-10-18T04:32:40.833Z,64.49
2022-10-18T04:35:08.294Z,64.76
2022-10-18T04:37:36.062Z,64.71
2022-10-18T04:40:04.465Z,65.10
2022-10-18T04:42:31.750Z,64.64
2022-10-18T04:44:58.830Z,64.68
2022-10-18T04:47:25.939Z,64.67
2022-10-18T04:49:53.155Z,64.62
2022-10-18T04:52:20.356Z,64.88
2022-10-18T04:54:47.721Z,64.83
2022-10-18T04:57:14.808Z,64.86
2022-10-18T04:59:43.320Z,64.90
2022-10-18T05:02:11.482Z,64.94
2022-10-18T05:04:38.690Z,64.75
2022-10-18T05:07:07.540Z,64.71
2022-10-18T05:09:34.980Z,64.48
2022-10-18T05:12:02.255Z,64.53
2022-10-18T05:14:30.844Z,64.27
2022-10-18T05:16:59.204Z,64.19
2022-10-18T05:19:27.778Z,64.44
2022-10-18T05:21:54.912Z,64.05
2022-10-18T05:24:25.455Z,63.81
2022-10-18T05:26:55.069Z,63.92
2022-10-18T05:29:24.134Z,63.83
2022-10-18T05:31:51.926Z,63.66
2022-10-18T05:34:20.784Z,63.38
2022-10-18T05:36:49.983Z,63.03
2022-10-18T05:39:17.076Z,62.87
2022-10-18T05:41:44.162Z,62.49
2022-10-18T05:44:11.477Z,62.38
2022-10-18T05:46:38.780Z,62.17
2022-10-18T05:49:06.106Z,61.78
2022-10-18T05:51:33.406Z,61.61
2022-10-18T05:54:00.959Z,61.37
2022-10-18T05:56:28.357Z,60.96
2022-10-18T05:58:55.501Z,60.94
2022-10-18T06:01:22.937Z,60.53
2022-10-18T06:03:50.867Z,60.54
2022-10-18T06:06:18.048Z,60.13
2022-10-18T06:08:45.237Z,60.12
2022-10-18T06:11:15.089Z,59.97
2022-10-18T06:13:46.877Z,59.56
2022-10-18T06:16:16.512Z,59.56
2022-10-18T06:18:43.901Z,59.45
2022-10-18T06:21:11.168Z,59.21
2022-10-18T06:23:38.412Z,59.21
2022-10-18T06:26:07.997Z,58.78
2022-10-18T06:28:36.659Z,58.44
2022-10-18T06:31:05.222Z,58.13
2022-10-18T06:33:34.637Z,58.16
2022-10-18T06:36:15.019Z,57.85
2022-10-18T06:38:45.013Z,57.66
2022-10-18T06:41:12.456Z,57.27
2022-10-18T06:43:40.818Z,56.78
2022-10-18T06:46:08.994Z,56.85
2022-10-18T06:48:38.836Z,56.97
2022-10-18T06:51:08.206Z,56.81
2022-10-18T06:53:44.247Z,56.76
2022-10-18T06:56:21.076Z,56.57
2022-10-18T06:58:48.316Z,56.54
2022-10-18T07:01:18.197Z,56.34
2022-10-18T07:03:47.466Z,56.03
2022-10-18T07:06:17.997Z,55.40
2022-10-18T07:08:46.120Z,56.21
2022-10-18T07:11:19.774Z,54.94
2022-10-18T07:13:47.094Z,54.96
2022-10-18T07:16:18.415Z,54.69
2022-10-18T07:18:51.267Z,54.14
2022-10-18T07:21:23.895Z,54.54
2022-10-18T07:23:52.290Z,54.12
2022-10-18T07:26:33.420Z,54.34
2022-10-18T07:29:05.372Z,53.44
2022-10-18T07:31:33.526Z,53.51
2022-10-18T07:34:01.331Z,53.35
2022-10-18T07:36:28.563Z,53.10
2022-10-18T07:38:57.572Z,52.89
2022-10-18T07:41:24.999Z,52.42
2022-10-18T07:43:53.325Z,51.99
2022-10-18T07:46:22.477Z,51.96
2022-10-18T07:48:50.410Z,52.28
2022-10-18T07:51:18.989Z,53.53
2022-10-18T07:53:46.550Z,53.34
2022-10-18T07:56:16.755Z,51.45
2022-10-18T07:58:45.416Z,52.00
2022-10-18T08:01:13.498Z,52.73
2022-10-18T08:03:43.743Z,51.02
2022-10-18T08:06:13.374Z,51.29
2022-10-18T08:08:41.423Z,51.17
2022-10-18T08:11:15.160Z,52.14
2022-10-18T08:13:43.171Z,52.24
2022-10-18T08:16:13.733Z,49.75
2022-10-18T08:18:41.873Z,51.75
2022-10-18T08:21:10.633Z,50.84
2022-10-18T08:23:38.623Z,50.74
2022-10-18T08:26:08.812Z,49.83
2022-10-18T08:28:38.062Z,51.33
2022-10-18T08:31:07.489Z,50.57
2022-10-18T08:33:36.350Z,51.07
2022-10-18T08:36:06.675Z,51.49
2022-10-18T08:38:36.244Z,50.38
2022-10-18T08:41:36.247Z,48.06
2022-10-18T08:44:07.436Z,47.96
2022-10-18T08:46:38.247Z,50.46
2022-10-18T08:49:06.931Z,49.49
2022-10-18T08:51:46.885Z,47.43
2022-10-18T08:54:19.363Z,49.19
2022-10-18T08:56:57.258Z,49.49
2022-10-18T08:59:25.598Z,49.41
2022-10-18T09:02:17.877Z,49.56
2022-10-18T09:05:03.761Z,49.83
2022-10-18T09:07:37.130Z,49.07
2022-10-18T09:10:30.008Z,48.37
2022-10-18T09:13:15.781Z,48.23
2022-10-18T09:15:55.805Z,46.27
2022-10-18T09:19:02.839Z,48.05
2022-10-18T09:22:15.033Z,47.59
2022-10-18T09:25:29.033Z,45.04
2022-10-18T09:28:09.099Z,46.80
2022-10-18T09:31:16.907Z,47.06
2022-10-18T09:34:02.700Z,44.12
2022-10-18T09:36:36.803Z,46.66
2022-10-18T09:39:17.028Z,46.92
2022-10-18T09:41:49.205Z,45.79
2022-10-18T09:44:22.664Z,45.88
2022-10-18T09:47:03.773Z,44.57
2022-10-18T09:49:41.809Z,45.28
2022-10-18T09:52:16.561Z,43.58
2022-10-18T09:54:51.174Z,46.74
2022-10-18T10:01:33.872Z,45.20
2022-10-18T10:04:01.543Z,43.79
2022-10-18T10:08:04.671Z,43.02
2022-10-18T10:10:33.068Z,44.08
2022-10-18T10:13:28.269Z,45.28
2022-10-18T10:15:57.979Z,45.91
2022-10-18T10:18:30.300Z,44.78
2022-10-18T10:21:05.851Z,43.07
2022-10-18T10:23:46.825Z,41.92
2022-10-18T10:26:25.100Z,43.72
2022-10-18T10:28:52.626Z,45.08
2022-10-18T10:31:27.360Z,45.67
2022-10-18T10:34:07.963Z,45.11
2022-10-18T10:36:46.358Z,44.18
2022-10-18T10:39:19.702Z,42.96
2022-10-18T10:41:50.300Z,43.82
2022-10-18T10:44:20.388Z,44.54
2022-10-18T10:46:50.850Z,42.51
2022-10-18T10:49:40.820Z,41.94
2022-10-18T10:52:28.833Z,42.91
2022-10-18T10:55:16.723Z,43.56
2022-10-18T10:57:51.796Z,44.54
2022-10-18T11:00:34.474Z,42.26
2022-10-18T11:03:33.818Z,41.27
2022-10-18T11:06:02.404Z,43.30
2022-10-18T11:08:40.542Z,43.07
2022-10-18T11:11:28.032Z,43.42
2022-10-18T11:14:26.304Z,43.78
2022-10-18T11:17:45.851Z,43.41
2022-10-18T11:20:41.803Z,42.10
2022-10-18T11:23:13.924Z,41.05
2022-10-18T11:25:58.926Z,41.66
2022-10-18T11:28:45.269Z,42.25
2022-10-18T11:31:23.395Z,39.76
2022-10-18T11:34:16.095Z,41.67
2022-10-18T11:36:56.221Z,40.44
2022-10-18T11:39:36.448Z,42.01
2022-10-18T11:42:27.704Z,42.23
2022-10-18T11:45:15.408Z,43.08
2022-10-18T11:47:59.140Z,41.07
2022-10-18T11:50:43.578Z,42.71
2022-10-18T11:53:52.004Z,40.58
2022-10-18T11:56:30.366Z,41.65
2022-10-18T11:59:22.710Z,42.88
2022-10-18T12:01:56.100Z,40.11
2022-10-18T12:04:49.008Z,42.45
2022-10-18T12:07:39.959Z,39.92
2022-10-18T12:10:09.910Z,42.50
2022-10-18T12:12:53.453Z,42.26
2022-10-18T12:15:24.362Z,40.37
2022-10-18T12:17:56.209Z,42.09
2022-10-18T12:20:30.396Z,39.79
2022-10-18T12:23:04.120Z,40.98
2022-10-18T12:25:38.755Z,41.77
2022-10-18T12:28:09.008Z,41.73
2022-10-18T12:30:54.642Z,41.77
2022-10-18T12:33:28.682Z,40.38
2022-10-18T12:36:02.315Z,42.41
2022-10-18T12:38:34.715Z,40.25
2022-10-18T12:41:03.618Z,41.21
2022-10-18T12:43:36.946Z,40.65
2022-10-18T12:46:12.261Z,40.89
2022-10-18T12:48:45.721Z,41.24
2022-10-18T12:51:16.552Z,40.38
2022-10-18T12:53:46.468Z,40.14
2022-10-18T12:56:28.891Z,39.60
2022-10-18T12:59:14.508Z,40.23
2022-10-18T13:01:50.971Z,39.47
2022-10-18T13:04:33.844Z,40.47
2022-10-18T13:07:32.613Z,40.24
2022-10-18T13:10:13.100Z,39.81
2022-10-18T13:12:41.078Z,40.47
2022-10-18T13:15:36.236Z,39.72
2022-10-18T13:18:22.549Z,39.72
2022-10-18T13:21:18.715Z,39.02
2022-10-18T13:24:19.897Z,39.28
2022-10-18T13:30:11.912Z,40.08
2022-10-18T13:32:54.167Z,40.37
2022-10-18T13:35:55.801Z,39.57
2022-10-18T13:38:47.494Z,40.63
2022-10-18T13:41:16.648Z,39.60
2022-10-18T13:43:53.392Z,39.73
2022-10-18T13:46:32.916Z,39.40
2022-10-18T13:49:31.982Z,38.68
2022-10-18T13:52:17.541Z,38.83
2022-10-18T13:55:03.456Z,38.58
2022-10-18T13:57:54.207Z,38.62
2022-10-18T14:00:33.123Z,39.28
2022-10-18T14:03:37.919Z,38.86
2022-10-18T14:06:10.690Z,39.90
2022-10-18T14:08:56.882Z,39.49
2022-10-18T14:11:46.245Z,39.49
2022-10-18T14:14:38.962Z,39.71
2022-10-18T14:17:26.801Z,40.00
2022-10-18T14:20:29.445Z,39.75
2022-10-18T14:23:18.970Z,39.45
2022-10-18T14:25:46.883Z,40.36
2022-10-18T14:28:31.557Z,40.15
2022-10-18T14:31:16.027Z,40.05
2022-10-18T14:33:57.096Z,40.36
2022-10-18T14:36:27.957Z,40.32
2022-10-18T14:39:00.772Z,40.43
2022-10-18T14:41:29.174Z,40.83
2022-10-18T14:44:11.684Z,41.05
2022-10-18T14:47:03.165Z,41.10
2022-10-18T14:49:31.066Z,41.41
2022-10-18T14:52:00.473Z,41.71
2022-10-18T14:54:38.355Z,41.56
2022-10-18T14:57:07.232Z,41.94
2022-10-18T14:59:45.216Z,41.90
2022-10-18T15:02:21.896Z,41.87
2022-10-18T15:04:58.172Z,41.86
2022-10-18T15:07:28.922Z,42.25
2022-10-18T15:09:59.467Z,41.82
2022-10-18T15:12:29.624Z,42.31
2022-10-18T15:15:01.536Z,42.41
2022-10-18T15:17:31.885Z,42.48
2022-10-18T15:20:17.874Z,42.49
2022-10-18T15:22:46.944Z,42.44
2022-10-18T15:25:18.403Z,42.39
2022-10-18T15:27:52.162Z,42.61
2022-10-18T15:30:25.268Z,42.67
2022-10-18T15:32:55.925Z,42.59
2022-10-18T15:35:29.238Z,42.46
2022-10-18T15:37:58.354Z,42.70
2022-10-18T15:40:28.861Z,42.61
2022-10-18T15:42:58.424Z,41.88
2022-10-18T15:45:25.826Z,42.01
2022-10-18T15:48:11.506Z,41.96
2022-10-18T15:50:43.108Z,42.19
2022-10-18T15:53:24.373Z,41.81
2022-10-18T15:55:52.863Z,42.35
2022-10-18T15:58:32.211Z,42.44
2022-10-18T16:01:01.418Z,42.57
2022-10-18T16:03:29.072Z,42.74
2022-10-18T16:06:04.014Z,42.47
2022-10-18T16:08:32.493Z,42.75
2022-10-18T16:11:00.009Z,42.43
2022-10-18T16:13:27.817Z,42.86
2022-10-18T16:15:56.319Z,42.74
2022-10-18T16:18:25.319Z,43.20
2022-10-18T16:20:53.275Z,43.14
2022-10-18T16:23:22.199Z,42.89
2022-10-18T16:25:49.877Z,43.40
2022-10-18T16:28:22.882Z,43.51
2022-10-18T16:30:58.935Z,44.14
2022-10-18T16:33:27.217Z,43.98
2022-10-18T16:35:54.561Z,44.39
2022-10-18T16:38:48.213Z,44.02
2022-10-18T16:41:16.214Z,44.45
2022-10-18T16:43:45.324Z,44.40
2022-10-18T16:46:19.557Z,44.19
2022-10-18T16:48:49.260Z,44.31
2022-10-18T16:51:17.090Z,44.08
2022-10-18T16:53:44.501Z,44.40
2022-10-18T16:56:21.171Z,44.58
2022-10-18T16:58:49.415Z,44.69
2022-10-18T17:01:21.122Z,44.51
2022-10-18T17:03:49.097Z,43.78
2022-10-18T17:06:22.576Z,43.92
2022-10-18T17:08:51.019Z,43.96
2022-10-18T17:11:19.841Z,43.26
2022-10-18T17:13:47.783Z,43.35
2022-10-18T17:18:58.542Z,43.32
2022-10-18T17:21:28.027Z,43.32
2022-10-18T17:23:55.537Z,43.80
2022-10-18T17:26:31.446Z,43.72
2022-10-18T17:29:02.165Z,43.59
2022-10-18T17:31:30.829Z,43.90
2022-10-18T17:33:58.888Z,43.65
2022-10-18T17:36:28.450Z,44.27
2022-10-18T17:38:56.545Z,43.51
2022-10-18T17:41:24.007Z,44.18
2022-10-18T17:43:51.223Z,43.85
2022-10-18T17:46:19.904Z,44.03
2022-10-18T17:48:47.619Z,44.18
2022-10-18T17:51:17.376Z,44.01
2022-10-18T17:53:45.267Z,43.95
2022-10-18T17:56:13.540Z,44.11
2022-10-18T17:58:43.739Z,43.82
2022-10-18T18:01:14.978Z,44.06
2022-10-18T18:03:43.007Z,44.68
2022-10-18T18:06:19.649Z,44.95
2022-10-18T18:08:48.210Z,45.01
2022-10-18T18:11:17.131Z,45.13
2022-10-18T18:13:44.510Z,45.45
2022-10-18T18:16:23.735Z,45.50
2022-10-18T18:18:57.186Z,45.79
2022-10-18T18:21:25.820Z,45.72
2022-10-18T18:23:53.702Z,45.85
2022-10-18T18:26:22.686Z,45.56
2022-10-18T18:28:50.179Z,45.64
2022-10-18T18:31:20.328Z,45.65
2022-10-18T18:33:47.527Z,45.24
2022-10-18T18:36:14.733Z,45.59
2022-10-18T18:38:45.043Z,45.49
2022-10-18T18:41:17.987Z,46.06
2022-10-18T18:43:49.980Z,46.01
2022-10-18T18:46:17.186Z,45.70
2022-10-18T18:48:45.317Z,45.96
2022-10-18T18:51:15.314Z,45.89
2022-10-18T18:53:44.861Z,45.57
2022-10-18T18:56:16.044Z,46.00
2022-10-18T18:58:46.341Z,45.80
2022-10-18T19:01:17.620Z,45.90
2022-10-18T19:03:46.740Z,45.59
2022-10-18T19:06:16.979Z,45.41
2022-10-18T19:08:45.370Z,45.17
2022-10-18T19:11:15.350Z,45.27
2022-10-18T19:13:43.310Z,45.21
2022-10-18T19:16:18.300Z,45.16
2022-10-18T19:18:53.443Z,44.94
2022-10-18T19:21:21.781Z,44.77
2022-10-18T19:23:50.580Z,44.99
2022-10-18T19:26:32.339Z,45.06
2022-10-18T19:29:24.772Z,44.68
2022-10-18T19:31:54.669Z,44.90
2022-10-18T19:34:23.748Z,45.34
2022-10-18T19:36:54.420Z,45.30
2022-10-18T19:39:32.376Z,45.37
2022-10-18T19:42:03.424Z,45.16
2022-10-18T19:44:33.934Z,45.09
2022-10-18T19:47:02.787Z,45.39
2022-10-18T19:49:30.155Z,45.17
2022-10-18T19:51:57.660Z,45.28
2022-10-18T19:54:25.287Z,45.09
2022-10-18T19:56:52.920Z,45.23
2022-10-18T19:59:20.311Z,45.23
2022-10-18T20:01:48.497Z,45.12
2022-10-18T20:04:16.422Z,45.77
2022-10-18T20:06:44.158Z,45.74
2022-10-18T20:09:16.277Z,45.92
2022-10-18T20:11:47.032Z,46.17
2022-10-18T20:14:14.732Z,46.12
2022-10-18T20:16:41.969Z,46.01
2022-10-18T20:19:09.760Z,45.87
2022-10-18T20:21:37.305Z,45.77
2022-10-18T20:24:05.778Z,46.13
2022-10-18T20:26:36.056Z,46.33
2022-10-18T20:29:04.256Z,45.96
2022-10-18T20:31:34.937Z,46.55
2022-10-18T20:34:04.851Z,46.71
2022-10-18T20:36:33.013Z,46.60
2022-10-18T20:39:00.631Z,46.57
2022-10-18T20:41:41.316Z,47.01
2022-10-18T20:44:13.557Z,46.98
2022-10-18T20:46:41.167Z,47.42
2022-10-18T20:49:10.425Z,47.69
2022-10-18T20:51:37.726Z,48.14
2022-10-18T20:54:07.418Z,49.00
2022-10-18T20:56:36.650Z,49.56
2022-10-18T20:59:06.362Z,50.21
2022-10-18T21:01:35.204Z,50.84
2022-10-18T21:04:04.749Z,51.65
2022-10-18T21:06:34.463Z,51.58
2022-10-18T21:09:05.467Z,51.49
2022-10-18T21:11:37.730Z,52.27
2022-10-18T21:14:06.053Z,52.08
2022-10-18T21:16:36.109Z,52.09
2022-10-18T21:19:10.184Z,51.69
2022-10-18T21:21:37.804Z,51.04
2022-10-18T21:24:07.708Z,50.66
2022-10-18T21:26:35.924Z,50.46
2022-10-18T21:29:04.985Z,50.54
2022-10-18T21:31:39.324Z,50.61
2022-10-18T21:34:17.965Z,50.74
2022-10-18T21:36:47.543Z,50.74
2022-10-18T21:39:17.933Z,50.54
2022-10-18T21:41:45.645Z,50.14
2022-10-18T21:44:13.297Z,50.42
2022-10-18T21:46:43.131Z,50.88
2022-10-18T21:49:11.336Z,51.61
2022-10-18T21:51:38.938Z,51.58
2022-10-18T21:54:14.963Z,52.60
2022-10-18T21:56:42.454Z,52.77
2022-10-18T21:59:12.847Z,53.52
2022-10-18T22:01:40.796Z,53.30
2022-10-18T22:04:22.153Z,54.53
2022-10-18T22:06:50.125Z,54.40
2022-10-18T22:09:17.326Z,54.34
2022-10-18T22:11:49.193Z,53.93
2022-10-18T22:14:16.858Z,53.63
2022-10-18T22:16:44.009Z,53.49
2022-10-18T22:19:11.514Z,54.00
2022-10-18T22:21:38.997Z,54.83
2022-10-18T22:24:09.129Z,55.10
2022-10-18T22:26:39.058Z,55.15
2022-10-18T22:29:10.489Z,55.37
2022-10-18T22:31:40.147Z,55.67
2022-10-18T22:34:11.587Z,56.00
2022-10-18T22:36:39.118Z,56.53
2022-10-18T22:39:07.066Z,57.27
2022-10-18T22:41:35.270Z,57.34
2022-10-18T22:44:03.851Z,58.07
2022-10-18T22:46:33.054Z,57.81
2022-10-18T22:49:00.429Z,58.40
2022-10-18T22:51:28.068Z,58.35
2022-10-18T22:53:55.503Z,58.67
2022-10-18T22:56:24.472Z,59.18
2022-10-18T22:58:53.459Z,59.28
2022-10-18T23:01:23.184Z,59.64
2022-10-18T23:03:55.275Z,59.56
2022-10-18T23:06:25.754Z,59.31
2022-10-18T23:08:54.491Z,59.52
2022-10-18T23:11:21.832Z,59.87
2022-10-18T23:13:49.489Z,59.90
2022-10-18T23:16:17.676Z,59.65
2022-10-18T23:18:48.773Z,59.32
2022-10-18T23:21:18.757Z,58.86
2022-10-18T23:23:45.975Z,58.54
2022-10-18T23:26:19.718Z,59.08
2022-10-18T23:28:49.544Z,59.18
2022-10-18T23:31:21.110Z,59.83
2022-10-18T23:33:50.052Z,58.91
2022-10-18T23:36:20.212Z,59.17
2022-10-18T23:38:47.595Z,59.27
2022-10-18T23:41:16.420Z,59.75
2022-10-18T23:43:46.594Z,60.42
2022-10-18T23:46:14.956Z,60.80
2022-10-18T23:48:42.270Z,60.84
2022-10-18T23:51:10.038Z,60.66
2022-10-18T23:53:38.329Z,61.20
2022-10-18T23:56:10.674Z,61.42
2022-10-18T23:58:38.812Z,60.78
